sensor_id;sensor_type;location;lat;lon;timestamp;pressure;altitude;pressure_sealevel;temperature;humidity
23589;BME280;11972;48.078;11.876;2023-01-29T00:01:16;96244.72;;;-0.29;100.00
23589;BME280;11972;48.078;11.876;2023-01-29T00:05:16;96238.47;;;-0.39;100.00
23589;BME280;11972;48.078;11.876;2023-01-29T00:09:17;96241.56;;;-0.47;100.00
23589;BME280;11972;48.078;11.876;2023-01-29T00:13:18;96233.53;;;-0.57;100.00
23589;BME280;11972;48.078;11.876;2023-01-29T00:17:18;96228.63;;;-0.61;100.00
23589;BME280;11972;48.078;11.876;2023-01-29T00:21:20;96235.19;;;-0.56;100.00
23589;BME280;11972;48.078;11.876;2023-01-29T00:25:23;96223.16;;;-0.57;100.00
23589;BME280;11972;48.078;11.876;2023-01-29T00:29:24;96225.34;;;-0.51;100.00
23589;BME280;11972;48.078;11.876;2023-01-29T00:33:24;96237.25;;;-0.61;100.00
23589;BME280;11972;48.078;11.876;2023-01-29T00:37:24;96250.06;;;-0.72;100.00
23589;BME280;11972;48.078;11.876;2023-01-29T00:41:27;96245.34;;;-0.80;100.00
23589;BME280;11972;48.078;11.876;2023-01-29T00:45:46;96250.69;;;-0.83;100.00
23589;BME280;11972;48.078;11.876;2023-01-29T00:49:46;96252.47;;;-0.83;100.00
23589;BME280;11972;48.078;11.876;2023-01-29T00:53:47;96246.75;;;-0.88;100.00
23589;BME280;11972;48.078;11.876;2023-01-29T00:57:49;96250.25;;;-0.89;100.00
23589;BME280;11972;48.078;11.876;2023-01-29T01:01:49;96246.75;;;-0.88;100.00
23589;BME280;11972;48.078;11.876;2023-01-29T01:06:09;96250.25;;;-0.89;100.00
23589;BME280;11972;48.078;11.876;2023-01-29T01:10:14;96254.41;;;-0.87;100.00
23589;BME280;11972;48.078;11.876;2023-01-29T01:14:21;96248.31;;;-0.86;100.00
23589;BME280;11972;48.078;11.876;2023-01-29T01:18:21;96250.81;;;-0.84;100.00
23589;BME280;11972;48.078;11.876;2023-01-29T01:22:22;96253.03;;;-0.78;100.00
23589;BME280;11972;48.078;11.876;2023-01-29T01:26:22;96254.59;;;-0.76;100.00
23589;BME280;11972;48.078;11.876;2023-01-29T01:30:23;96254.13;;;-0.68;100.00
23589;BME280;11972;48.078;11.876;2023-01-29T01:34:24;96259.31;;;-0.68;100.00
23589;BME280;11972;48.078;11.876;2023-01-29T01:38:26;96252.66;;;-0.72;100.00
23589;BME280;11972;48.078;11.876;2023-01-29T01:42:27;96255.41;;;-0.75;100.00
23589;BME280;11972;48.078;11.876;2023-01-29T01:46:32;96255.00;;;-0.82;100.00
23589;BME280;11972;48.078;11.876;2023-01-29T01:50:56;96253.28;;;-0.83;100.00
23589;BME280;11972;48.078;11.876;2023-01-29T01:54:58;96259.34;;;-0.82;100.00
23589;BME280;11972;48.078;11.876;2023-01-29T01:58:59;96254.16;;;-0.82;100.00
23589;BME280;11972;48.078;11.876;2023-01-29T02:03:01;96259.69;;;-0.74;100.00
23589;BME280;11972;48.078;11.876;2023-01-29T02:07:19;96261.50;;;-0.62;100.00
23589;BME280;11972;48.078;11.876;2023-01-29T02:11:38;96267.44;;;-0.60;100.00
23589;BME280;11972;48.078;11.876;2023-01-29T02:15:39;96259.91;;;-0.50;100.00
23589;BME280;11972;48.078;11.876;2023-01-29T02:24:18;96272.25;;;-0.54;100.00
23589;BME280;11972;48.078;11.876;2023-01-29T02:28:50;96268.97;;;-0.43;100.00
23589;BME280;11972;48.078;11.876;2023-01-29T02:33:04;96264.44;;;-0.39;100.00
23589;BME280;11972;48.078;11.876;2023-01-29T02:37:10;96265.31;;;-0.26;100.00
23589;BME280;11972;48.078;11.876;2023-01-29T02:41:17;96262.34;;;-0.20;100.00
23589;BME280;11972;48.078;11.876;2023-01-29T02:45:45;96261.22;;;-0.16;100.00
23589;BME280;11972;48.078;11.876;2023-01-29T02:54:16;96250.75;;;-0.02;100.00
23589;BME280;11972;48.078;11.876;2023-01-29T02:58:27;96242.03;;;-0.01;100.00
23589;BME280;11972;48.078;11.876;2023-01-29T03:02:38;96246.09;;;0.04;100.00
23589;BME280;11972;48.078;11.876;2023-01-29T03:06:50;96244.03;;;0.09;100.00
23589;BME280;11972;48.078;11.876;2023-01-29T03:10:56;96238.63;;;0.12;100.00
23589;BME280;11972;48.078;11.876;2023-01-29T03:15:09;96243.09;;;0.10;100.00
23589;BME280;11972;48.078;11.876;2023-01-29T03:19:27;96238.63;;;0.12;100.00
23589;BME280;11972;48.078;11.876;2023-01-29T03:23:33;96232.41;;;0.14;100.00
23589;BME280;11972;48.078;11.876;2023-01-29T03:27:58;96229.81;;;0.14;100.00
23589;BME280;11972;48.078;11.876;2023-01-29T03:32:19;96235.09;;;0.00;100.00
23589;BME280;11972;48.078;11.876;2023-01-29T03:37:12;96239.34;;;-0.26;100.00
23589;BME280;11972;48.078;11.876;2023-01-29T03:49:45;96242.47;;;-0.21;100.00
23589;BME280;11972;48.078;11.876;2023-01-29T03:54:08;96236.25;;;-0.45;100.00
23589;BME280;11972;48.078;11.876;2023-01-29T03:58:25;96236.19;;;-0.44;100.00
23589;BME280;11972;48.078;11.876;2023-01-29T04:02:37;96233.34;;;-0.27;100.00
23589;BME280;11972;48.078;11.876;2023-01-29T04:06:44;96229.44;;;-0.07;100.00
23589;BME280;11972;48.078;11.876;2023-01-29T04:10:46;96217.50;;;0.04;100.00
23589;BME280;11972;48.078;11.876;2023-01-29T04:14:50;96211.94;;;0.10;100.00
23589;BME280;11972;48.078;11.876;2023-01-29T04:18:52;96202.06;;;0.15;100.00
23589;BME280;11972;48.078;11.876;2023-01-29T04:22:54;96193.31;;;0.16;100.00
23589;BME280;11972;48.078;11.876;2023-01-29T04:26:59;96194.78;;;0.20;100.00
23589;BME280;11972;48.078;11.876;2023-01-29T04:31:07;96206.00;;;0.20;100.00
23589;BME280;11972;48.078;11.876;2023-01-29T04:44:22;96202.31;;;0.37;100.00
23589;BME280;11972;48.078;11.876;2023-01-29T04:48:33;96211.00;;;0.36;100.00
23589;BME280;11972;48.078;11.876;2023-01-29T04:57:17;96216.00;;;0.39;100.00
23589;BME280;11972;48.078;11.876;2023-01-29T05:01:23;96214.38;;;0.38;100.00
23589;BME280;11972;48.078;11.876;2023-01-29T05:05:29;96217.03;;;0.37;100.00
23589;BME280;11972;48.078;11.876;2023-01-29T05:09:30;96211.00;;;0.36;100.00
23589;BME280;11972;48.078;11.876;2023-01-29T05:13:33;96214.75;;;0.32;100.00
23589;BME280;11972;48.078;11.876;2023-01-29T05:17:35;96221.84;;;0.30;100.00
23589;BME280;11972;48.078;11.876;2023-01-29T05:21:36;96234.69;;;0.19;100.00
23589;BME280;11972;48.078;11.876;2023-01-29T05:25:37;96233.25;;;0.15;100.00
23589;BME280;11972;48.078;11.876;2023-01-29T05:29:42;96231.25;;;0.06;100.00
23589;BME280;11972;48.078;11.876;2023-01-29T05:33:44;96233.38;;;-0.14;100.00
23589;BME280;11972;48.078;11.876;2023-01-29T05:37:44;96236.75;;;-0.26;100.00
23589;BME280;11972;48.078;11.876;2023-01-29T05:41:45;96242.25;;;-0.31;100.00
23589;BME280;11972;48.078;11.876;2023-01-29T05:46:00;96251.63;;;-0.28;100.00
23589;BME280;11972;48.078;11.876;2023-01-29T05:50:00;96256.75;;;-0.41;100.00
23589;BME280;11972;48.078;11.876;2023-01-29T05:54:00;96254.00;;;-0.52;100.00
23589;BME280;11972;48.078;11.876;2023-01-29T05:58:01;96250.88;;;-0.57;100.00
23589;BME280;11972;48.078;11.876;2023-01-29T06:02:01;96253.06;;;-0.51;100.00
23589;BME280;11972;48.078;11.876;2023-01-29T06:06:01;96249.44;;;-0.48;100.00
23589;BME280;11972;48.078;11.876;2023-01-29T06:10:02;96252.59;;;-0.43;100.00
23589;BME280;11972;48.078;11.876;2023-01-29T06:14:03;96261.19;;;-0.43;100.00
23589;BME280;11972;48.078;11.876;2023-01-29T06:18:03;96250.88;;;-0.57;100.00
23589;BME280;11972;48.078;11.876;2023-01-29T06:22:03;96251.06;;;-0.60;100.00
23589;BME280;11972;48.078;11.876;2023-01-29T06:26:06;96245.22;;;-0.64;100.00
23589;BME280;11972;48.078;11.876;2023-01-29T06:30:07;96258.09;;;-0.62;100.00
23589;BME280;11972;48.078;11.876;2023-01-29T06:34:09;96263.09;;;-0.59;100.00
23589;BME280;11972;48.078;11.876;2023-01-29T06:38:10;96268.75;;;-0.53;100.00
23589;BME280;11972;48.078;11.876;2023-01-29T06:42:10;96252.53;;;-0.56;100.00
23589;BME280;11972;48.078;11.876;2023-01-29T06:46:10;96261.50;;;-0.47;100.00
23589;BME280;11972;48.078;11.876;2023-01-29T06:50:11;96267.50;;;-0.47;100.00
23589;BME280;11972;48.078;11.876;2023-01-29T06:54:11;96266.03;;;-0.51;100.00
23589;BME280;11972;48.078;11.876;2023-01-29T06:58:11;96267.75;;;-0.37;100.00
23589;BME280;11972;48.078;11.876;2023-01-29T07:02:12;96262.00;;;-0.28;100.00
23589;BME280;11972;48.078;11.876;2023-01-29T07:06:13;96257.78;;;-0.16;100.00
23589;BME280;11972;48.078;11.876;2023-01-29T07:10:13;96257.28;;;-0.09;100.00
23589;BME280;11972;48.078;11.876;2023-01-29T07:14:13;96257.53;;;0.01;100.00
23589;BME280;11972;48.078;11.876;2023-01-29T07:18:14;96259.41;;;0.12;100.00
23589;BME280;11972;48.078;11.876;2023-01-29T07:22:14;96252.88;;;0.19;100.00
23589;BME280;11972;48.078;11.876;2023-01-29T07:26:15;96253.41;;;0.24;100.00
23589;BME280;11972;48.078;11.876;2023-01-29T07:30:16;96239.28;;;0.28;100.00
23589;BME280;11972;48.078;11.876;2023-01-29T07:34:16;96245.94;;;0.32;100.00
23589;BME280;11972;48.078;11.876;2023-01-29T07:38:17;96238.88;;;0.34;100.00
23589;BME280;11972;48.078;11.876;2023-01-29T07:42:17;96235.34;;;0.35;100.00
23589;BME280;11972;48.078;11.876;2023-01-29T07:46:18;96233.25;;;0.40;100.00
23589;BME280;11972;48.078;11.876;2023-01-29T07:50:18;96220.06;;;0.43;100.00
23589;BME280;11972;48.078;11.876;2023-01-29T07:54:18;96230.59;;;0.55;100.00
23589;BME280;11972;48.078;11.876;2023-01-29T07:58:19;96229.75;;;0.67;100.00
23589;BME280;11972;48.078;11.876;2023-01-29T08:02:19;96224.13;;;0.73;100.00
23589;BME280;11972;48.078;11.876;2023-01-29T08:06:19;96223.59;;;0.81;100.00
23589;BME280;11972;48.078;11.876;2023-01-29T08:10:20;96218.91;;;0.86;100.00
23589;BME280;11972;48.078;11.876;2023-01-29T08:14:21;96217.25;;;0.97;100.00
23589;BME280;11972;48.078;11.876;2023-01-29T08:18:21;96220.06;;;1.07;100.00
23589;BME280;11972;48.078;11.876;2023-01-29T08:22:21;96217.63;;;1.17;100.00
23589;BME280;11972;48.078;11.876;2023-01-29T08:26:22;96214.28;;;1.28;100.00
23589;BME280;11972;48.078;11.876;2023-01-29T08:30:27;96223.63;;;1.30;100.00
23589;BME280;11972;48.078;11.876;2023-01-29T08:34:27;96228.19;;;1.39;100.00
23589;BME280;11972;48.078;11.876;2023-01-29T08:38:27;96224.19;;;1.46;100.00
23589;BME280;11972;48.078;11.876;2023-01-29T08:42:28;96227.31;;;1.52;100.00
23589;BME280;11972;48.078;11.876;2023-01-29T08:46:28;96235.53;;;1.58;100.00
23589;BME280;11972;48.078;11.876;2023-01-29T08:50:29;96248.22;;;1.63;100.00
23589;BME280;11972;48.078;11.876;2023-01-29T08:54:30;96254.63;;;1.46;100.00
23589;BME280;11972;48.078;11.876;2023-01-29T08:58:31;96259.06;;;1.07;100.00
23589;BME280;11972;48.078;11.876;2023-01-29T09:02:31;96264.81;;;0.99;100.00
23589;BME280;11972;48.078;11.876;2023-01-29T09:06:32;96269.06;;;1.13;100.00
23589;BME280;11972;48.078;11.876;2023-01-29T09:10:32;96261.72;;;1.31;100.00
23589;BME280;11972;48.078;11.876;2023-01-29T09:14:33;96268.13;;;1.51;100.00
23589;BME280;11972;48.078;11.876;2023-01-29T09:18:33;96270.00;;;1.62;100.00
23589;BME280;11972;48.078;11.876;2023-01-29T09:22:34;96270.00;;;1.62;100.00
23589;BME280;11972;48.078;11.876;2023-01-29T09:26:34;96267.59;;;1.59;100.00
23589;BME280;11972;48.078;11.876;2023-01-29T09:30:34;96279.38;;;1.52;100.00
23589;BME280;11972;48.078;11.876;2023-01-29T09:34:36;96288.59;;;1.19;100.00
23589;BME280;11972;48.078;11.876;2023-01-29T09:38:37;96285.00;;;0.83;100.00
23589;BME280;11972;48.078;11.876;2023-01-29T09:42:43;96295.16;;;0.86;100.00
23589;BME280;11972;48.078;11.876;2023-01-29T09:46:50;96292.16;;;0.92;100.00
23589;BME280;11972;48.078;11.876;2023-01-29T09:50:52;96300.28;;;1.01;100.00
23589;BME280;11972;48.078;11.876;2023-01-29T09:55:06;96307.44;;;1.10;100.00
23589;BME280;11972;48.078;11.876;2023-01-29T09:59:12;96307.38;;;1.11;100.00
23589;BME280;11972;48.078;11.876;2023-01-29T10:03:29;96308.59;;;0.80;100.00
23589;BME280;11972;48.078;11.876;2023-01-29T10:12:30;96302.88;;;0.62;100.00
23589;BME280;11972;48.078;11.876;2023-01-29T10:25:18;96285.31;;;0.91;100.00
23589;BME280;11972;48.078;11.876;2023-01-29T10:29:19;96284.97;;;1.09;100.00
23589;BME280;11972;48.078;11.876;2023-01-29T10:33:28;96289.84;;;1.26;100.00
23589;BME280;11972;48.078;11.876;2023-01-29T10:37:39;96279.63;;;1.48;100.00
23589;BME280;11972;48.078;11.876;2023-01-29T10:54:38;96273.44;;;0.74;100.00
23589;BME280;11972;48.078;11.876;2023-01-29T10:58:49;96270.63;;;1.16;100.00
23589;BME280;11972;48.078;11.876;2023-01-29T11:02:51;96271.66;;;1.63;100.00
23589;BME280;11972;48.078;11.876;2023-01-29T11:06:51;96265.91;;;1.94;100.00
23589;BME280;11972;48.078;11.876;2023-01-29T11:11:07;96262.91;;;2.12;100.00
23589;BME280;11972;48.078;11.876;2023-01-29T11:15:28;96257.50;;;2.26;100.00
23589;BME280;11972;48.078;11.876;2023-01-29T11:19:39;96252.69;;;2.09;100.00
23589;BME280;11972;48.078;11.876;2023-01-29T11:23:40;96255.53;;;1.82;100.00
23589;BME280;11972;48.078;11.876;2023-01-29T11:28:01;96254.50;;;1.47;100.00
23589;BME280;11972;48.078;11.876;2023-01-29T11:32:05;96250.81;;;1.63;100.00
23589;BME280;11972;48.078;11.876;2023-01-29T11:41:22;96241.66;;;2.05;100.00
23589;BME280;11972;48.078;11.876;2023-01-29T11:45:25;96240.16;;;2.14;100.00
23589;BME280;11972;48.078;11.876;2023-01-29T11:49:33;96230.91;;;2.10;100.00
23589;BME280;11972;48.078;11.876;2023-01-29T11:53:38;96219.31;;;2.14;100.00
23589;BME280;11972;48.078;11.876;2023-01-29T11:57:41;96207.03;;;2.27;100.00
23589;BME280;11972;48.078;11.876;2023-01-29T12:01:42;96197.53;;;2.26;100.00
23589;BME280;11972;48.078;11.876;2023-01-29T12:05:53;96179.78;;;2.31;100.00
23589;BME280;11972;48.078;11.876;2023-01-29T12:09:57;96173.97;;;2.28;100.00
23589;BME280;11972;48.078;11.876;2023-01-29T12:14:04;96150.44;;;2.52;100.00
23589;BME280;11972;48.078;11.876;2023-01-29T12:18:13;96135.75;;;2.84;100.00
23589;BME280;11972;48.078;11.876;2023-01-29T12:26:31;96131.66;;;3.14;100.00
23589;BME280;11972;48.078;11.876;2023-01-29T12:30:41;96137.84;;;3.02;100.00
23589;BME280;11972;48.078;11.876;2023-01-29T12:34:54;96144.75;;;2.80;100.00
23589;BME280;11972;48.078;11.876;2023-01-29T12:38:58;96144.63;;;2.70;100.00
23589;BME280;11972;48.078;11.876;2023-01-29T12:43:04;96156.13;;;2.68;100.00
23589;BME280;11972;48.078;11.876;2023-01-29T12:47:09;96151.50;;;2.49;100.00
23589;BME280;11972;48.078;11.876;2023-01-29T12:51:17;96151.56;;;2.25;100.00
23589;BME280;11972;48.078;11.876;2023-01-29T12:55:23;96142.38;;;1.97;100.00
23589;BME280;11972;48.078;11.876;2023-01-29T12:59:36;96134.56;;;1.86;100.00
23589;BME280;11972;48.078;11.876;2023-01-29T13:04:01;96122.13;;;1.89;100.00
23589;BME280;11972;48.078;11.876;2023-01-29T13:08:07;96117.63;;;1.91;100.00
23589;BME280;11972;48.078;11.876;2023-01-29T13:12:16;96113.59;;;1.87;100.00
23589;BME280;11972;48.078;11.876;2023-01-29T13:16:20;96109.06;;;1.78;100.00
23589;BME280;11972;48.078;11.876;2023-01-29T13:20:25;96094.66;;;1.85;100.00
23589;BME280;11972;48.078;11.876;2023-01-29T13:24:54;96089.66;;;1.82;100.00
23589;BME280;11972;48.078;11.876;2023-01-29T13:28:56;96090.53;;;1.59;100.00
23589;BME280;11972;48.078;11.876;2023-01-29T13:32:59;96079.31;;;1.69;100.00
23589;BME280;11972;48.078;11.876;2023-01-29T13:37:17;96072.13;;;1.84;100.00
23589;BME280;11972;48.078;11.876;2023-01-29T13:41:31;96068.97;;;2.03;100.00
23589;BME280;11972;48.078;11.876;2023-01-29T13:45:43;96069.06;;;1.90;100.00
23589;BME280;11972;48.078;11.876;2023-01-29T13:49:51;96067.75;;;1.85;100.00
23589;BME280;11972;48.078;11.876;2023-01-29T13:54:00;96068.78;;;1.71;100.00
23589;BME280;11972;48.078;11.876;2023-01-29T13:58:03;96065.78;;;1.64;100.00
23589;BME280;11972;48.078;11.876;2023-01-29T14:02:19;96066.13;;;1.48;100.00
23589;BME280;11972;48.078;11.876;2023-01-29T14:06:40;96059.38;;;1.22;100.00
23589;BME280;11972;48.078;11.876;2023-01-29T14:10:42;96058.16;;;1.15;100.00
23589;BME280;11972;48.078;11.876;2023-01-29T14:18:58;96048.00;;;1.47;100.00
23589;BME280;11972;48.078;11.876;2023-01-29T14:23:00;96049.81;;;1.58;100.00
23589;BME280;11972;48.078;11.876;2023-01-29T14:27:03;96052.19;;;1.61;100.00
23589;BME280;11972;48.078;11.876;2023-01-29T14:31:04;96064.16;;;1.28;100.00
23589;BME280;11972;48.078;11.876;2023-01-29T14:35:21;96070.13;;;0.93;100.00
23589;BME280;11972;48.078;11.876;2023-01-29T14:39:33;96069.22;;;0.82;100.00
23589;BME280;11972;48.078;11.876;2023-01-29T14:43:34;96084.81;;;0.58;100.00
23589;BME280;11972;48.078;11.876;2023-01-29T14:51:40;96082.63;;;0.52;100.00
23589;BME280;11972;48.078;11.876;2023-01-29T15:00:00;96061.78;;;0.64;100.00
23589;BME280;11972;48.078;11.876;2023-01-29T15:04:24;96068.56;;;0.67;100.00
23589;BME280;11972;48.078;11.876;2023-01-29T15:08:31;96059.94;;;0.66;100.00
23589;BME280;11972;48.078;11.876;2023-01-29T15:12:47;96053.16;;;0.64;100.00
23589;BME280;11972;48.078;11.876;2023-01-29T15:16:59;96049.84;;;0.62;100.00
23589;BME280;11972;48.078;11.876;2023-01-29T15:21:03;96055.97;;;0.61;100.00
23589;BME280;11972;48.078;11.876;2023-01-29T15:25:09;96057.94;;;0.57;100.00
23589;BME280;11972;48.078;11.876;2023-01-29T15:29:22;96071.59;;;0.48;100.00
23589;BME280;11972;48.078;11.876;2023-01-29T15:33:23;96070.97;;;0.44;100.00
23589;BME280;11972;48.078;11.876;2023-01-29T15:37:30;96066.84;;;0.42;100.00
23589;BME280;11972;48.078;11.876;2023-01-29T15:41:31;96061.22;;;0.35;100.00
23589;BME280;11972;48.078;11.876;2023-01-29T15:45:32;96060.72;;;0.30;100.00
23589;BME280;11972;48.078;11.876;2023-01-29T15:49:35;96057.38;;;0.28;100.00
23589;BME280;11972;48.078;11.876;2023-01-29T15:53:43;96053.63;;;0.32;100.00
23589;BME280;11972;48.078;11.876;2023-01-29T15:57:45;96050.94;;;0.34;100.00
23589;BME280;11972;48.078;11.876;2023-01-29T16:01:46;96060.72;;;0.30;100.00
23589;BME280;11972;48.078;11.876;2023-01-29T16:05:46;96076.09;;;0.20;100.00
23589;BME280;11972;48.078;11.876;2023-01-29T16:09:47;96073.81;;;0.16;100.00
23589;BME280;11972;48.078;11.876;2023-01-29T16:13:49;96072.16;;;0.15;100.00
23589;BME280;11972;48.078;11.876;2023-01-29T16:17:50;96071.44;;;0.13;100.00
23589;BME280;11972;48.078;11.876;2023-01-29T16:22:02;96072.16;;;0.15;100.00
23589;BME280;11972;48.078;11.876;2023-01-29T16:26:08;96077.16;;;0.18;100.00
23589;BME280;11972;48.078;11.876;2023-01-29T16:30:15;96082.03;;;0.10;100.00
23589;BME280;11972;48.078;11.876;2023-01-29T16:34:24;96087.25;;;0.10;100.00
23589;BME280;11972;48.078;11.876;2023-01-29T16:38:28;96095.44;;;0.04;100.00
23589;BME280;11972;48.078;11.876;2023-01-29T16:42:30;96099.59;;;-0.07;100.00
23589;BME280;11972;48.078;11.876;2023-01-29T16:46:36;96109.47;;;-0.12;100.00
23589;BME280;11972;48.078;11.876;2023-01-29T16:50:37;96114.66;;;-0.24;100.00
23589;BME280;11972;48.078;11.876;2023-01-29T16:54:41;96126.06;;;-0.27;100.00
23589;BME280;11972;48.078;11.876;2023-01-29T16:58:48;96130.91;;;-0.35;100.00
23589;BME280;11972;48.078;11.876;2023-01-29T17:02:51;96128.84;;;-0.30;100.00
23589;BME280;11972;48.078;11.876;2023-01-29T17:06:54;96128.47;;;-0.24;100.00
23589;BME280;11972;48.078;11.876;2023-01-29T17:10:56;96131.38;;;-0.16;100.00
23589;BME280;11972;48.078;11.876;2023-01-29T17:15:03;96140.31;;;-0.07;100.00
23589;BME280;11972;48.078;11.876;2023-01-29T17:19:15;96135.97;;;-0.07;100.00
23589;BME280;11972;48.078;11.876;2023-01-29T17:23:16;96138.56;;;-0.07;100.00
23589;BME280;11972;48.078;11.876;2023-01-29T17:27:18;96144.28;;;-0.02;100.00
23589;BME280;11972;48.078;11.876;2023-01-29T17:31:19;96139.81;;;0.01;100.00
23589;BME280;11972;48.078;11.876;2023-01-29T17:35:20;96140.00;;;-0.03;100.00
23589;BME280;11972;48.078;11.876;2023-01-29T17:39:22;96135.13;;;-0.07;100.00
23589;BME280;11972;48.078;11.876;2023-01-29T17:43:23;96129.19;;;-0.09;100.00
23589;BME280;11972;48.078;11.876;2023-01-29T17:47:23;96134.63;;;-0.12;100.00
23589;BME280;11972;48.078;11.876;2023-01-29T17:51:23;96133.88;;;-0.14;100.00
23589;BME280;11972;48.078;11.876;2023-01-29T17:55:24;96133.16;;;-0.16;100.00
23589;BME280;11972;48.078;11.876;2023-01-29T17:59:28;96132.59;;;-0.21;100.00
23589;BME280;11972;48.078;11.876;2023-01-29T18:03:29;96137.56;;;-0.31;100.00
23589;BME280;11972;48.078;11.876;2023-01-29T18:07:29;96136.63;;;-0.43;100.00
23589;BME280;11972;48.078;11.876;2023-01-29T18:11:30;96134.22;;;-0.46;100.00
23589;BME280;11972;48.078;11.876;2023-01-29T18:15:30;96129.25;;;-0.49;100.00
23589;BME280;11972;48.078;11.876;2023-01-29T18:19:30;96119.06;;;-0.52;100.00
23589;BME280;11972;48.078;11.876;2023-01-29T18:23:31;96126.09;;;-0.54;100.00
23589;BME280;11972;48.078;11.876;2023-01-29T18:27:31;96122.13;;;-0.60;100.00
23589;BME280;11972;48.078;11.876;2023-01-29T18:31:32;96127.50;;;-0.63;100.00
23589;BME280;11972;48.078;11.876;2023-01-29T18:35:32;96122.31;;;-0.63;100.00
23589;BME280;11972;48.078;11.876;2023-01-29T18:39:33;96114.66;;;-0.64;100.00
23589;BME280;11972;48.078;11.876;2023-01-29T18:43:33;96118.78;;;-0.62;100.00
23589;BME280;11972;48.078;11.876;2023-01-29T18:47:33;96117.13;;;-0.63;100.00
23589;BME280;11972;48.078;11.876;2023-01-29T18:51:34;96113.72;;;-0.63;100.00
23589;BME280;11972;48.078;11.876;2023-01-29T18:55:34;96113.81;;;-0.65;100.00
23589;BME280;11972;48.078;11.876;2023-01-29T18:59:34;96119.22;;;-0.68;100.00
23589;BME280;11972;48.078;11.876;2023-01-29T19:03:40;96131.66;;;-0.73;100.00
23589;BME280;11972;48.078;11.876;2023-01-29T19:07:40;96128.13;;;-0.72;100.00
23589;BME280;11972;48.078;11.876;2023-01-29T19:11:41;96128.53;;;-0.78;100.00
23589;BME280;11972;48.078;11.876;2023-01-29T19:15:41;96118.00;;;-0.89;100.00
23589;BME280;11972;48.078;11.876;2023-01-29T19:19:42;96123.03;;;-1.01;100.00
23589;BME280;11972;48.078;11.876;2023-01-29T19:23:43;96115.28;;;-1.15;100.00
23589;BME280;11972;48.078;11.876;2023-01-29T19:27:44;96110.69;;;-1.53;100.00
23589;BME280;11972;48.078;11.876;2023-01-29T19:31:45;96114.78;;;-1.91;100.00
23589;BME280;11972;48.078;11.876;2023-01-29T19:35:46;96115.13;;;-2.26;100.00
23589;BME280;11972;48.078;11.876;2023-01-29T19:39:46;96105.72;;;-2.57;100.00
23589;BME280;11972;48.078;11.876;2023-01-29T19:43:47;96109.59;;;-2.80;100.00
23589;BME280;11972;48.078;11.876;2023-01-29T19:47:47;96105.47;;;-2.98;100.00
23589;BME280;11972;48.078;11.876;2023-01-29T19:51:47;96102.31;;;-3.19;100.00
23589;BME280;11972;48.078;11.876;2023-01-29T19:55:56;96108.56;;;-3.39;100.00
23589;BME280;11972;48.078;11.876;2023-01-29T19:59:58;96118.88;;;-3.55;100.00
23589;BME280;11972;48.078;11.876;2023-01-29T20:03:58;96104.13;;;-3.69;100.00
23589;BME280;11972;48.078;11.876;2023-01-29T20:07:59;96095.81;;;-3.74;100.00
23589;BME280;11972;48.078;11.876;2023-01-29T20:11:59;96088.53;;;-3.83;100.00
23589;BME280;11972;48.078;11.876;2023-01-29T20:16:00;96094.25;;;-3.94;100.00
23589;BME280;11972;48.078;11.876;2023-01-29T20:20:04;96084.47;;;-4.05;100.00
23589;BME280;11972;48.078;11.876;2023-01-29T20:24:06;96089.34;;;-4.16;100.00
23589;BME280;11972;48.078;11.876;2023-01-29T20:28:09;96095.81;;;-4.25;100.00
23589;BME280;11972;48.078;11.876;2023-01-29T20:32:10;96095.63;;;-4.37;100.00
23589;BME280;11972;48.078;11.876;2023-01-29T20:36:12;96096.00;;;-4.45;100.00
23589;BME280;11972;48.078;11.876;2023-01-29T20:40:14;96097.91;;;-4.49;100.00
23589;BME280;11972;48.078;11.876;2023-01-29T20:44:14;96099.88;;;-4.54;100.00
23589;BME280;11972;48.078;11.876;2023-01-29T20:48:15;96099.19;;;-4.57;100.00
23589;BME280;11972;48.078;11.876;2023-01-29T20:52:15;96103.00;;;-4.64;100.00
23589;BME280;11972;48.078;11.876;2023-01-29T20:56:16;96093.22;;;-4.75;100.00
23589;BME280;11972;48.078;11.876;2023-01-29T21:00:17;96093.28;;;-4.77;100.00
23589;BME280;11972;48.078;11.876;2023-01-29T21:04:17;96094.94;;;-4.76;100.00
23589;BME280;11972;48.078;11.876;2023-01-29T21:08:18;96078.81;;;-4.79;100.00
23589;BME280;11972;48.078;11.876;2023-01-29T21:12:18;96081.53;;;-4.82;100.00
23589;BME280;11972;48.078;11.876;2023-01-29T21:16:18;96069.63;;;-4.85;100.00
23589;BME280;11972;48.078;11.876;2023-01-29T21:20:19;96075.75;;;-4.87;100.00
23589;BME280;11972;48.078;11.876;2023-01-29T21:24:19;96071.75;;;-4.93;100.00
23589;BME280;11972;48.078;11.876;2023-01-29T21:28:20;96067.56;;;-4.95;100.00
23589;BME280;11972;48.078;11.876;2023-01-29T21:32:20;96074.47;;;-4.96;100.00
23589;BME280;11972;48.078;11.876;2023-01-29T21:36:21;96080.13;;;-5.07;100.00
23589;BME280;11972;48.078;11.876;2023-01-29T21:40:21;96078.09;;;-5.17;100.00
23589;BME280;11972;48.078;11.876;2023-01-29T21:44:24;96077.47;;;-5.22;100.00
23589;BME280;11972;48.078;11.876;2023-01-29T21:48:24;96074.91;;;-5.22;100.00
23589;BME280;11972;48.078;11.876;2023-01-29T21:52:24;96074.03;;;-5.23;100.00
23589;BME280;11972;48.078;11.876;2023-01-29T21:56:25;96082.69;;;-5.24;100.00
23589;BME280;11972;48.078;11.876;2023-01-29T22:00:25;96066.63;;;-5.29;100.00
23589;BME280;11972;48.078;11.876;2023-01-29T22:04:26;96057.38;;;-5.33;100.00
23589;BME280;11972;48.078;11.876;2023-01-29T22:08:27;96054.88;;;-5.35;100.00
23589;BME280;11972;48.078;11.876;2023-01-29T22:12:27;96055.72;;;-5.34;100.00
23589;BME280;11972;48.078;11.876;2023-01-29T22:16:27;96047.06;;;-5.33;100.00
23589;BME280;11972;48.078;11.876;2023-01-29T22:20:28;96055.06;;;-5.39;100.00
23589;BME280;11972;48.078;11.876;2023-01-29T22:24:29;96050.22;;;-5.45;100.00
23589;BME280;11972;48.078;11.876;2023-01-29T22:28:30;96048.78;;;-5.51;100.00